createdAt,value
2023-05-08T00:04:18.355Z,6
2023-05-08T00:14:22.808Z,6
2023-05-08T00:24:30.681Z,6
2023-05-08T00:34:36.425Z,6
2023-05-08T00:44:42.358Z,5
2023-05-08T00:54:49.199Z,6
2023-05-08T01:04:55.013Z,7
2023-05-08T01:15:02.005Z,5
2023-05-08T01:25:07.911Z,5
2023-05-08T01:35:13.198Z,6
2023-05-08T01:45:18.836Z,5
2023-05-08T01:55:23.912Z,6
2023-05-08T02:05:31.132Z,5
2023-05-08T02:15:36.429Z,5
2023-05-08T02:25:42.023Z,4
2023-05-08T02:35:50.033Z,5
2023-05-08T02:45:54.826Z,6
2023-05-08T02:55:59.599Z,8
2023-05-08T03:06:06.110Z,4
2023-05-08T03:16:12.817Z,5
2023-05-08T03:26:18.447Z,4
2023-05-08T03:36:24.506Z,6
2023-05-08T03:46:31.029Z,4
2023-05-08T03:56:37.239Z,6
2023-05-08T04:06:49.772Z,7
2023-05-08T04:16:51.881Z,7
2023-05-08T04:26:58.308Z,7
2023-05-08T04:37:02.873Z,6
2023-05-08T04:47:10.214Z,5
2023-05-08T04:57:15.749Z,6
2023-05-08T05:07:21.047Z,6
2023-05-08T05:17:27.898Z,5
2023-05-08T05:27:35.024Z,7
2023-05-08T05:37:39.052Z,6
2023-05-08T05:47:46.583Z,5
2023-05-08T05:57:51.690Z,7
2023-05-08T06:07:58.378Z,5
2023-05-08T06:18:05.901Z,4
2023-05-08T06:28:11.693Z,6
2023-05-08T06:38:18.827Z,6
2023-05-08T06:48:25.241Z,3
2023-05-08T06:58:30.658Z,4
2023-05-08T07:08:37.192Z,5
2023-05-08T07:18:47.309Z,6
2023-05-08T07:28:52.096Z,3
2023-05-08T07:38:59.706Z,4
2023-05-08T07:49:05.252Z,5
2023-05-08T07:59:11.219Z,8
2023-05-08T08:09:15.954Z,6
2023-05-08T08:19:23.697Z,5
2023-05-08T08:29:29.977Z,3
2023-05-08T08:39:35.960Z,2
2023-05-08T08:49:42.202Z,4
2023-05-08T08:59:49.307Z,3
2023-05-08T09:09:54.725Z,3
2023-05-08T09:20:09.388Z,3
2023-05-08T09:30:07.655Z,6
2023-05-08T09:40:13.214Z,3
2023-05-08T09:50:19.564Z,3
2023-05-08T10:00:26.507Z,4
2023-05-08T10:10:37.696Z,3
2023-05-08T10:20:42.738Z,7
2023-05-08T10:30:49.798Z,3
2023-05-08T10:40:57.163Z,6
2023-05-08T10:51:02.488Z,7
2023-05-08T11:01:08.725Z,8
2023-05-08T11:11:15.083Z,6
2023-05-08T11:21:22.030Z,6
2023-05-08T11:31:30.052Z,9
2023-05-08T11:41:36.349Z,6
2023-05-08T11:51:43.842Z,8
2023-05-08T12:02:04.378Z,6
2023-05-08T12:12:03.638Z,9
2023-05-08T12:22:11.787Z,26
2023-05-08T12:32:18.156Z,9
2023-05-08T12:42:24.202Z,11
2023-05-08T12:52:32.037Z,12
2023-05-08T13:02:44.430Z,16
2023-05-08T13:12:42.058Z,20
2023-05-08T13:22:49.121Z,23
2023-05-08T13:32:56.322Z,21
2023-05-08T13:43:03.185Z,23
2023-05-08T13:53:10.660Z,23
2023-05-08T14:03:22.145Z,26
2023-05-08T14:13:23.968Z,28
2023-05-08T14:23:30.936Z,27
2023-05-08T14:33:36.781Z,25
2023-05-08T14:43:43.230Z,29
2023-05-08T14:53:49.358Z,28
2023-05-08T15:03:53.836Z,23
2023-05-08T15:13:59.569Z,22
2023-05-08T15:24:06.805Z,25
2023-05-08T15:34:11.676Z,27
2023-05-08T15:44:16.808Z,29
2023-05-08T15:54:23.911Z,30
2023-05-08T16:04:31.297Z,28
2023-05-08T16:14:37.971Z,29
2023-05-08T16:24:43.723Z,26
2023-05-08T16:34:48.294Z,27
2023-05-08T16:44:54.733Z,30
2023-05-08T16:55:01.105Z,28
2023-05-08T17:05:08.210Z,31
2023-05-08T17:15:14.586Z,31
2023-05-08T17:25:21.230Z,32
2023-05-08T17:35:27.276Z,31
2023-05-08T17:45:33.232Z,35
2023-05-08T17:55:41.265Z,31
2023-05-08T18:05:46.070Z,35
2023-05-08T18:15:53.592Z,31
2023-05-08T18:26:00.171Z,30
2023-05-08T18:36:05.216Z,36
2023-05-08T18:46:11.086Z,35
2023-05-08T18:56:17.469Z,45
2023-05-08T19:06:22.713Z,32
2023-05-08T19:16:30.753Z,36
2023-05-08T19:26:37.015Z,28
2023-05-08T19:36:42.734Z,22
2023-05-08T19:46:48.985Z,21
2023-05-08T19:56:54.848Z,17
2023-05-08T20:07:00.655Z,15
2023-05-08T20:17:07.637Z,17
2023-05-08T20:27:13.264Z,19
2023-05-08T20:37:17.752Z,21
2023-05-08T20:47:24.427Z,21
2023-05-08T20:57:31.573Z,20
2023-05-08T21:07:38.941Z,21
2023-05-08T21:17:43.546Z,19
2023-05-08T21:27:50.688Z,19
2023-05-08T21:37:56.538Z,19
2023-05-08T21:48:04.385Z,21
2023-05-08T21:58:09.408Z,22
2023-05-08T22:08:15.035Z,24
2023-05-08T22:18:24.246Z,22
2023-05-08T22:28:32.359Z,22
2023-05-08T22:38:36.008Z,23
2023-05-08T22:48:42.519Z,21
2023-05-08T22:58:47.883Z,22
2023-05-08T23:08:53.924Z,20
2023-05-08T23:19:00.075Z,19
2023-05-08T23:29:07.658Z,18
2023-05-08T23:39:12.576Z,21
2023-05-08T23:49:19.969Z,19
2023-05-08T23:59:26.415Z,21
